sensor_id;sensor_type;location;lat;lon;timestamp;temperature;humidity
23259;DHT22;11798;51.528;7.240;2023-03-01T00:01:16;-0.80;99.90
23259;DHT22;11798;51.528;7.240;2023-03-01T00:03:42;-0.80;99.90
23259;DHT22;11798;51.528;7.240;2023-03-01T00:06:09;-0.80;99.90
23259;DHT22;11798;51.528;7.240;2023-03-01T00:08:35;-0.80;99.90
23259;DHT22;11798;51.528;7.240;2023-03-01T00:13:44;-0.90;99.90
23259;DHT22;11798;51.528;7.240;2023-03-01T00:16:13;-1.00;99.90
23259;DHT22;11798;51.528;7.240;2023-03-01T00:18:40;-1.00;99.90
23259;DHT22;11798;51.528;7.240;2023-03-01T00:21:05;-1.00;99.90
23259;DHT22;11798;51.528;7.240;2023-03-01T00:23:31;-1.00;99.90
23259;DHT22;11798;51.528;7.240;2023-03-01T00:25:59;-1.00;99.90
23259;DHT22;11798;51.528;7.240;2023-03-01T00:28:24;-1.00;99.90
23259;DHT22;11798;51.528;7.240;2023-03-01T00:30:50;-1.00;99.90
23259;DHT22;11798;51.528;7.240;2023-03-01T00:33:16;-1.00;99.90
23259;DHT22;11798;51.528;7.240;2023-03-01T00:35:41;-1.00;99.90
23259;DHT22;11798;51.528;7.240;2023-03-01T00:38:07;-1.00;99.90
23259;DHT22;11798;51.528;7.240;2023-03-01T00:40:34;-1.10;99.90
23259;DHT22;11798;51.528;7.240;2023-03-01T00:43:01;-1.10;99.90
23259;DHT22;11798;51.528;7.240;2023-03-01T00:45:27;-1.10;99.90
23259;DHT22;11798;51.528;7.240;2023-03-01T00:47:53;-1.10;99.90
23259;DHT22;11798;51.528;7.240;2023-03-01T00:50:20;-1.10;99.90
23259;DHT22;11798;51.528;7.240;2023-03-01T00:52:46;-1.20;99.90
23259;DHT22;11798;51.528;7.240;2023-03-01T00:55:12;-1.20;99.90
23259;DHT22;11798;51.528;7.240;2023-03-01T00:57:38;-1.20;99.90
23259;DHT22;11798;51.528;7.240;2023-03-01T01:00:05;-1.20;99.90
23259;DHT22;11798;51.528;7.240;2023-03-01T01:02:33;-1.20;99.90
23259;DHT22;11798;51.528;7.240;2023-03-01T01:04:59;-1.20;99.90
23259;DHT22;11798;51.528;7.240;2023-03-01T01:07:24;-1.20;99.90
23259;DHT22;11798;51.528;7.240;2023-03-01T01:09:50;-1.20;99.90
23259;DHT22;11798;51.528;7.240;2023-03-01T01:12:16;-1.30;99.90
23259;DHT22;11798;51.528;7.240;2023-03-01T01:14:41;-1.30;99.90
23259;DHT22;11798;51.528;7.240;2023-03-01T01:17:07;-1.30;99.90
23259;DHT22;11798;51.528;7.240;2023-03-01T01:19:33;-1.30;99.90
23259;DHT22;11798;51.528;7.240;2023-03-01T01:21:58;-1.30;99.90
23259;DHT22;11798;51.528;7.240;2023-03-01T01:24:24;-1.30;99.90
23259;DHT22;11798;51.528;7.240;2023-03-01T01:26:50;-1.40;99.90
23259;DHT22;11798;51.528;7.240;2023-03-01T01:29:15;-1.40;99.90
23259;DHT22;11798;51.528;7.240;2023-03-01T01:31:42;-1.40;99.90
23259;DHT22;11798;51.528;7.240;2023-03-01T01:34:13;-1.50;99.90
23259;DHT22;11798;51.528;7.240;2023-03-01T01:36:39;-1.40;99.90
23259;DHT22;11798;51.528;7.240;2023-03-01T01:39:05;-1.50;99.90
23259;DHT22;11798;51.528;7.240;2023-03-01T01:41:31;-1.50;99.90
23259;DHT22;11798;51.528;7.240;2023-03-01T01:47:11;-1.50;99.90
23259;DHT22;11798;51.528;7.240;2023-03-01T01:49:41;-1.50;99.90
23259;DHT22;11798;51.528;7.240;2023-03-01T01:52:34;-1.50;99.90
23259;DHT22;11798;51.528;7.240;2023-03-01T01:55:14;-1.60;99.90
23259;DHT22;11798;51.528;7.240;2023-03-01T01:57:43;-1.60;99.90
23259;DHT22;11798;51.528;7.240;2023-03-01T02:00:12;-1.60;99.90
23259;DHT22;11798;51.528;7.240;2023-03-01T02:02:38;-1.60;99.90
23259;DHT22;11798;51.528;7.240;2023-03-01T02:08:02;-1.60;99.90
23259;DHT22;11798;51.528;7.240;2023-03-01T02:10:28;-1.50;99.90
23259;DHT22;11798;51.528;7.240;2023-03-01T02:12:55;-1.50;99.90
23259;DHT22;11798;51.528;7.240;2023-03-01T02:15:24;-1.60;99.90
23259;DHT22;11798;51.528;7.240;2023-03-01T02:17:50;-1.80;99.90
23259;DHT22;11798;51.528;7.240;2023-03-01T02:22:58;-1.70;99.90
23259;DHT22;11798;51.528;7.240;2023-03-01T02:28:19;-1.70;99.90
23259;DHT22;11798;51.528;7.240;2023-03-01T02:30:47;-1.70;99.90
23259;DHT22;11798;51.528;7.240;2023-03-01T02:33:34;-1.70;99.90
23259;DHT22;11798;51.528;7.240;2023-03-01T02:36:04;-1.70;99.90
23259;DHT22;11798;51.528;7.240;2023-03-01T02:38:31;-1.70;99.90
23259;DHT22;11798;51.528;7.240;2023-03-01T02:40:57;-1.70;99.90
23259;DHT22;11798;51.528;7.240;2023-03-01T02:43:29;-1.70;99.90
23259;DHT22;11798;51.528;7.240;2023-03-01T02:45:59;-1.80;99.90
23259;DHT22;11798;51.528;7.240;2023-03-01T02:48:27;-1.80;99.90
23259;DHT22;11798;51.528;7.240;2023-03-01T02:51:07;-1.80;99.90
23259;DHT22;11798;51.528;7.240;2023-03-01T02:56:11;-1.90;99.90
23259;DHT22;11798;51.528;7.240;2023-03-01T02:58:42;-1.80;99.90
23259;DHT22;11798;51.528;7.240;2023-03-01T03:01:14;-1.80;99.90
23259;DHT22;11798;51.528;7.240;2023-03-01T03:03:41;-1.80;99.90
23259;DHT22;11798;51.528;7.240;2023-03-01T03:06:07;-1.80;99.90
23259;DHT22;11798;51.528;7.240;2023-03-01T03:08:33;-1.80;99.90
23259;DHT22;11798;51.528;7.240;2023-03-01T03:10:59;-1.80;99.90
23259;DHT22;11798;51.528;7.240;2023-03-01T03:13:24;-1.80;99.90
23259;DHT22;11798;51.528;7.240;2023-03-01T03:15:54;-1.80;99.90
23259;DHT22;11798;51.528;7.240;2023-03-01T03:18:21;-1.80;99.90
23259;DHT22;11798;51.528;7.240;2023-03-01T03:20:48;-1.80;99.90
23259;DHT22;11798;51.528;7.240;2023-03-01T03:23:18;-1.80;99.90
23259;DHT22;11798;51.528;7.240;2023-03-01T03:25:44;-1.80;99.90
23259;DHT22;11798;51.528;7.240;2023-03-01T03:28:10;-1.80;99.90
23259;DHT22;11798;51.528;7.240;2023-03-01T03:30:38;-1.90;99.90
23259;DHT22;11798;51.528;7.240;2023-03-01T03:33:07;-1.90;99.90
23259;DHT22;11798;51.528;7.240;2023-03-01T03:35:39;-2.00;99.90
23259;DHT22;11798;51.528;7.240;2023-03-01T03:38:08;-2.00;99.90
23259;DHT22;11798;51.528;7.240;2023-03-01T03:40:42;-2.00;99.90
23259;DHT22;11798;51.528;7.240;2023-03-01T03:43:14;-2.00;99.90
23259;DHT22;11798;51.528;7.240;2023-03-01T03:45:40;-2.00;99.90
23259;DHT22;11798;51.528;7.240;2023-03-01T03:48:08;-2.00;99.90
23259;DHT22;11798;51.528;7.240;2023-03-01T03:50:34;-2.00;99.90
23259;DHT22;11798;51.528;7.240;2023-03-01T03:53:01;-2.00;99.90
23259;DHT22;11798;51.528;7.240;2023-03-01T03:55:27;-2.00;99.90
23259;DHT22;11798;51.528;7.240;2023-03-01T03:57:57;-2.00;99.90
23259;DHT22;11798;51.528;7.240;2023-03-01T04:00:26;-2.00;99.90
23259;DHT22;11798;51.528;7.240;2023-03-01T04:02:51;-2.00;99.90
23259;DHT22;11798;51.528;7.240;2023-03-01T04:05:22;-2.00;99.90
23259;DHT22;11798;51.528;7.240;2023-03-01T04:07:48;-2.00;99.90
23259;DHT22;11798;51.528;7.240;2023-03-01T04:10:17;-2.10;99.90
23259;DHT22;11798;51.528;7.240;2023-03-01T04:12:43;-2.20;99.90
23259;DHT22;11798;51.528;7.240;2023-03-01T04:15:11;-2.20;99.90
23259;DHT22;11798;51.528;7.240;2023-03-01T04:17:44;-2.20;99.90
23259;DHT22;11798;51.528;7.240;2023-03-01T04:20:16;-2.20;99.90
23259;DHT22;11798;51.528;7.240;2023-03-01T04:22:51;-2.10;99.90
23259;DHT22;11798;51.528;7.240;2023-03-01T04:25:17;-2.20;99.90
23259;DHT22;11798;51.528;7.240;2023-03-01T04:27:43;-2.20;99.90
23259;DHT22;11798;51.528;7.240;2023-03-01T04:30:09;-2.20;99.90
23259;DHT22;11798;51.528;7.240;2023-03-01T04:32:35;-2.20;99.90
23259;DHT22;11798;51.528;7.240;2023-03-01T04:35:01;-2.30;99.90
23259;DHT22;11798;51.528;7.240;2023-03-01T04:37:27;-2.30;99.90
23259;DHT22;11798;51.528;7.240;2023-03-01T04:39:53;-2.30;99.90
23259;DHT22;11798;51.528;7.240;2023-03-01T04:42:19;-2.30;99.90
23259;DHT22;11798;51.528;7.240;2023-03-01T04:44:45;-2.30;99.90
23259;DHT22;11798;51.528;7.240;2023-03-01T04:47:11;-2.30;99.90
23259;DHT22;11798;51.528;7.240;2023-03-01T04:49:37;-2.40;99.90
23259;DHT22;11798;51.528;7.240;2023-03-01T04:52:03;-2.40;99.90
23259;DHT22;11798;51.528;7.240;2023-03-01T04:54:31;-2.50;99.90
23259;DHT22;11798;51.528;7.240;2023-03-01T04:56:58;-2.50;99.90
23259;DHT22;11798;51.528;7.240;2023-03-01T04:59:24;-2.50;99.90
23259;DHT22;11798;51.528;7.240;2023-03-01T05:01:53;-2.50;99.90
23259;DHT22;11798;51.528;7.240;2023-03-01T05:04:23;-2.50;99.90
23259;DHT22;11798;51.528;7.240;2023-03-01T05:06:49;-2.50;99.90
23259;DHT22;11798;51.528;7.240;2023-03-01T05:09:15;-2.40;99.90
23259;DHT22;11798;51.528;7.240;2023-03-01T05:11:41;-2.40;99.90
23259;DHT22;11798;51.528;7.240;2023-03-01T05:14:07;-2.30;99.90
23259;DHT22;11798;51.528;7.240;2023-03-01T05:16:34;-2.40;99.90
23259;DHT22;11798;51.528;7.240;2023-03-01T05:18:59;-2.40;99.90
23259;DHT22;11798;51.528;7.240;2023-03-01T05:21:25;-2.40;99.90
23259;DHT22;11798;51.528;7.240;2023-03-01T05:23:51;-2.40;99.90
23259;DHT22;11798;51.528;7.240;2023-03-01T05:26:19;-2.50;99.90
23259;DHT22;11798;51.528;7.240;2023-03-01T05:28:47;-2.50;99.90
23259;DHT22;11798;51.528;7.240;2023-03-01T05:31:13;-2.50;99.90
23259;DHT22;11798;51.528;7.240;2023-03-01T05:33:39;-2.50;99.90
23259;DHT22;11798;51.528;7.240;2023-03-01T05:36:07;-2.50;99.90
23259;DHT22;11798;51.528;7.240;2023-03-01T05:38:33;-2.50;99.90
23259;DHT22;11798;51.528;7.240;2023-03-01T05:40:59;-2.50;99.90
23259;DHT22;11798;51.528;7.240;2023-03-01T05:43:25;-2.50;99.90
23259;DHT22;11798;51.528;7.240;2023-03-01T05:45:51;-2.50;99.90
23259;DHT22;11798;51.528;7.240;2023-03-01T05:48:16;-2.50;99.90
23259;DHT22;11798;51.528;7.240;2023-03-01T05:50:45;-2.50;99.90
23259;DHT22;11798;51.528;7.240;2023-03-01T05:53:18;-2.40;99.90
23259;DHT22;11798;51.528;7.240;2023-03-01T05:55:47;-2.40;99.90
23259;DHT22;11798;51.528;7.240;2023-03-01T05:58:18;-2.50;99.90
23259;DHT22;11798;51.528;7.240;2023-03-01T06:00:45;-2.40;99.90
23259;DHT22;11798;51.528;7.240;2023-03-01T06:03:13;-2.40;99.90
23259;DHT22;11798;51.528;7.240;2023-03-01T06:05:40;-2.40;99.90
23259;DHT22;11798;51.528;7.240;2023-03-01T06:08:05;-2.40;99.90
23259;DHT22;11798;51.528;7.240;2023-03-01T06:10:31;-2.40;99.90
23259;DHT22;11798;51.528;7.240;2023-03-01T06:12:57;-2.40;99.90
23259;DHT22;11798;51.528;7.240;2023-03-01T06:15:24;-2.40;99.90
23259;DHT22;11798;51.528;7.240;2023-03-01T06:17:50;-2.40;99.90
23259;DHT22;11798;51.528;7.240;2023-03-01T06:20:17;-2.30;99.90
23259;DHT22;11798;51.528;7.240;2023-03-01T06:22:44;-2.40;99.90
23259;DHT22;11798;51.528;7.240;2023-03-01T06:25:11;-2.40;99.90
23259;DHT22;11798;51.528;7.240;2023-03-01T06:27:38;-2.40;99.90
23259;DHT22;11798;51.528;7.240;2023-03-01T06:30:03;-2.40;99.90
23259;DHT22;11798;51.528;7.240;2023-03-01T06:32:29;-2.40;99.90
23259;DHT22;11798;51.528;7.240;2023-03-01T06:34:56;-2.40;99.90
23259;DHT22;11798;51.528;7.240;2023-03-01T06:37:24;-2.40;99.90
23259;DHT22;11798;51.528;7.240;2023-03-01T06:39:50;-2.40;99.90
23259;DHT22;11798;51.528;7.240;2023-03-01T06:42:15;-2.30;99.90
23259;DHT22;11798;51.528;7.240;2023-03-01T06:44:42;-2.30;99.90
23259;DHT22;11798;51.528;7.240;2023-03-01T06:47:07;-2.30;99.90
23259;DHT22;11798;51.528;7.240;2023-03-01T06:49:33;-2.30;99.90
23259;DHT22;11798;51.528;7.240;2023-03-01T06:51:59;-2.30;99.90
23259;DHT22;11798;51.528;7.240;2023-03-01T06:54:24;-2.30;99.90
23259;DHT22;11798;51.528;7.240;2023-03-01T06:56:50;-2.30;99.90
23259;DHT22;11798;51.528;7.240;2023-03-01T06:59:16;-2.30;99.90
23259;DHT22;11798;51.528;7.240;2023-03-01T07:01:42;-2.30;99.90
23259;DHT22;11798;51.528;7.240;2023-03-01T07:04:09;-2.30;99.90
23259;DHT22;11798;51.528;7.240;2023-03-01T07:06:35;-2.30;99.90
23259;DHT22;11798;51.528;7.240;2023-03-01T07:09:01;-2.20;99.90
23259;DHT22;11798;51.528;7.240;2023-03-01T07:11:27;-2.20;99.90
23259;DHT22;11798;51.528;7.240;2023-03-01T07:13:52;-2.10;99.90
23259;DHT22;11798;51.528;7.240;2023-03-01T07:16:18;-2.00;99.90
23259;DHT22;11798;51.528;7.240;2023-03-01T07:18:45;-2.00;99.90
23259;DHT22;11798;51.528;7.240;2023-03-01T07:21:12;-1.80;99.90
23259;DHT22;11798;51.528;7.240;2023-03-01T07:23:38;-1.80;99.90
23259;DHT22;11798;51.528;7.240;2023-03-01T07:26:03;-1.70;99.90
23259;DHT22;11798;51.528;7.240;2023-03-01T07:28:29;-1.60;99.90
23259;DHT22;11798;51.528;7.240;2023-03-01T07:31:01;-1.60;99.90
23259;DHT22;11798;51.528;7.240;2023-03-01T07:33:27;-1.50;99.90
23259;DHT22;11798;51.528;7.240;2023-03-01T07:36:00;-1.40;99.90
23259;DHT22;11798;51.528;7.240;2023-03-01T07:38:26;-1.40;99.90
23259;DHT22;11798;51.528;7.240;2023-03-01T07:40:52;-1.30;99.90
23259;DHT22;11798;51.528;7.240;2023-03-01T07:43:19;-1.20;99.90
23259;DHT22;11798;51.528;7.240;2023-03-01T07:45:46;-1.10;99.90
23259;DHT22;11798;51.528;7.240;2023-03-01T07:48:11;-1.10;99.90
23259;DHT22;11798;51.528;7.240;2023-03-01T07:50:37;-1.00;99.90
23259;DHT22;11798;51.528;7.240;2023-03-01T07:53:03;-0.90;99.90
23259;DHT22;11798;51.528;7.240;2023-03-01T07:55:29;-0.90;99.90
23259;DHT22;11798;51.528;7.240;2023-03-01T07:57:54;-0.90;99.90
23259;DHT22;11798;51.528;7.240;2023-03-01T08:00:20;-0.80;99.90
23259;DHT22;11798;51.528;7.240;2023-03-01T08:02:46;-0.70;99.90
23259;DHT22;11798;51.528;7.240;2023-03-01T08:05:11;-0.60;99.90
23259;DHT22;11798;51.528;7.240;2023-03-01T08:07:37;-0.50;99.90
23259;DHT22;11798;51.528;7.240;2023-03-01T08:10:03;-0.50;99.90
23259;DHT22;11798;51.528;7.240;2023-03-01T08:12:29;-0.40;99.90
23259;DHT22;11798;51.528;7.240;2023-03-01T08:14:55;-0.40;99.90
23259;DHT22;11798;51.528;7.240;2023-03-01T08:17:20;-0.30;99.90
23259;DHT22;11798;51.528;7.240;2023-03-01T08:19:46;-0.30;99.90
23259;DHT22;11798;51.528;7.240;2023-03-01T08:22:12;-0.20;99.90
23259;DHT22;11798;51.528;7.240;2023-03-01T08:24:37;-0.10;99.90
23259;DHT22;11798;51.528;7.240;2023-03-01T08:27:03;0.00;99.90
23259;DHT22;11798;51.528;7.240;2023-03-01T08:29:31;0.10;99.90
23259;DHT22;11798;51.528;7.240;2023-03-01T08:31:57;0.20;99.90
23259;DHT22;11798;51.528;7.240;2023-03-01T08:34:22;0.30;99.90
23259;DHT22;11798;51.528;7.240;2023-03-01T08:36:48;0.30;99.90
23259;DHT22;11798;51.528;7.240;2023-03-01T08:39:16;0.40;99.90
23259;DHT22;11798;51.528;7.240;2023-03-01T08:41:42;0.50;99.90
23259;DHT22;11798;51.528;7.240;2023-03-01T08:44:09;0.60;99.90
23259;DHT22;11798;51.528;7.240;2023-03-01T08:46:38;0.70;99.90
23259;DHT22;11798;51.528;7.240;2023-03-01T08:49:05;0.80;99.90
23259;DHT22;11798;51.528;7.240;2023-03-01T08:51:32;0.80;99.90
23259;DHT22;11798;51.528;7.240;2023-03-01T08:54:06;0.90;99.90
23259;DHT22;11798;51.528;7.240;2023-03-01T08:56:32;1.00;99.90
23259;DHT22;11798;51.528;7.240;2023-03-01T08:58:58;1.00;99.90
23259;DHT22;11798;51.528;7.240;2023-03-01T09:01:24;1.10;99.90
23259;DHT22;11798;51.528;7.240;2023-03-01T09:03:50;1.10;99.90
23259;DHT22;11798;51.528;7.240;2023-03-01T09:06:15;1.30;99.90
23259;DHT22;11798;51.528;7.240;2023-03-01T09:08:43;1.40;99.90
23259;DHT22;11798;51.528;7.240;2023-03-01T09:11:12;1.40;99.90
23259;DHT22;11798;51.528;7.240;2023-03-01T09:13:38;1.40;99.90
23259;DHT22;11798;51.528;7.240;2023-03-01T09:16:08;1.60;99.90
23259;DHT22;11798;51.528;7.240;2023-03-01T09:18:35;1.60;99.90
23259;DHT22;11798;51.528;7.240;2023-03-01T09:21:15;1.70;99.90
23259;DHT22;11798;51.528;7.240;2023-03-01T09:23:43;1.70;99.90
23259;DHT22;11798;51.528;7.240;2023-03-01T09:26:15;1.90;99.90
23259;DHT22;11798;51.528;7.240;2023-03-01T09:28:43;2.00;99.90
23259;DHT22;11798;51.528;7.240;2023-03-01T09:31:13;2.10;99.90
23259;DHT22;11798;51.528;7.240;2023-03-01T09:33:39;2.20;99.90
23259;DHT22;11798;51.528;7.240;2023-03-01T09:36:07;2.20;99.90
23259;DHT22;11798;51.528;7.240;2023-03-01T09:38:34;2.30;99.90
23259;DHT22;11798;51.528;7.240;2023-03-01T09:41:08;2.30;99.90
23259;DHT22;11798;51.528;7.240;2023-03-01T09:43:43;2.40;99.90
23259;DHT22;11798;51.528;7.240;2023-03-01T09:46:12;2.50;99.90
23259;DHT22;11798;51.528;7.240;2023-03-01T09:48:48;2.70;99.90
23259;DHT22;11798;51.528;7.240;2023-03-01T09:51:19;2.70;99.90
23259;DHT22;11798;51.528;7.240;2023-03-01T09:53:47;2.60;99.90
23259;DHT22;11798;51.528;7.240;2023-03-01T09:56:41;2.70;99.90
23259;DHT22;11798;51.528;7.240;2023-03-01T10:02:00;2.80;99.90
23259;DHT22;11798;51.528;7.240;2023-03-01T10:04:48;2.80;99.90
23259;DHT22;11798;51.528;7.240;2023-03-01T10:07:43;3.00;99.90
23259;DHT22;11798;51.528;7.240;2023-03-01T10:10:31;3.00;99.90
23259;DHT22;11798;51.528;7.240;2023-03-01T10:13:00;3.10;99.90
23259;DHT22;11798;51.528;7.240;2023-03-01T10:15:36;3.10;99.90
23259;DHT22;11798;51.528;7.240;2023-03-01T10:18:12;3.20;99.90
23259;DHT22;11798;51.528;7.240;2023-03-01T10:23:25;3.20;99.90
23259;DHT22;11798;51.528;7.240;2023-03-01T10:31:22;3.30;99.90
23259;DHT22;11798;51.528;7.240;2023-03-01T10:33:51;3.40;99.90
23259;DHT22;11798;51.528;7.240;2023-03-01T10:36:20;3.50;99.90
23259;DHT22;11798;51.528;7.240;2023-03-01T10:38:57;3.40;99.90
23259;DHT22;11798;51.528;7.240;2023-03-01T10:41:25;3.40;99.90
23259;DHT22;11798;51.528;7.240;2023-03-01T10:43:54;3.50;99.90
23259;DHT22;11798;51.528;7.240;2023-03-01T10:46:34;3.50;99.90
23259;DHT22;11798;51.528;7.240;2023-03-01T10:49:22;3.60;99.90
23259;DHT22;11798;51.528;7.240;2023-03-01T10:51:50;3.60;99.90
23259;DHT22;11798;51.528;7.240;2023-03-01T10:56:52;3.60;99.90
23259;DHT22;11798;51.528;7.240;2023-03-01T10:59:38;3.80;99.90
23259;DHT22;11798;51.528;7.240;2023-03-01T11:02:36;3.80;99.90
23259;DHT22;11798;51.528;7.240;2023-03-01T11:05:20;3.90;99.90
23259;DHT22;11798;51.528;7.240;2023-03-01T11:07:57;4.10;99.90
23259;DHT22;11798;51.528;7.240;2023-03-01T11:10:33;4.10;99.90
23259;DHT22;11798;51.528;7.240;2023-03-01T11:13:15;4.20;99.90
23259;DHT22;11798;51.528;7.240;2023-03-01T11:15:41;4.20;99.90
23259;DHT22;11798;51.528;7.240;2023-03-01T11:18:23;4.20;99.90
23259;DHT22;11798;51.528;7.240;2023-03-01T11:20:51;4.30;99.90
23259;DHT22;11798;51.528;7.240;2023-03-01T11:23:18;4.40;99.90
23259;DHT22;11798;51.528;7.240;2023-03-01T11:25:56;4.40;99.90
23259;DHT22;11798;51.528;7.240;2023-03-01T11:28:23;4.30;99.90
23259;DHT22;11798;51.528;7.240;2023-03-01T11:31:02;4.40;99.90
23259;DHT22;11798;51.528;7.240;2023-03-01T11:33:38;4.50;99.90
23259;DHT22;11798;51.528;7.240;2023-03-01T11:38:50;4.70;99.90
23259;DHT22;11798;51.528;7.240;2023-03-01T11:41:33;4.70;99.90
23259;DHT22;11798;51.528;7.240;2023-03-01T11:44:05;4.80;99.90
23259;DHT22;11798;51.528;7.240;2023-03-01T11:46:43;4.90;99.90
23259;DHT22;11798;51.528;7.240;2023-03-01T11:55:18;4.90;99.90
23259;DHT22;11798;51.528;7.240;2023-03-01T11:58:14;4.90;99.90
23259;DHT22;11798;51.528;7.240;2023-03-01T12:00:57;4.80;99.90
23259;DHT22;11798;51.528;7.240;2023-03-01T12:20:18;5.10;99.90
23259;DHT22;11798;51.528;7.240;2023-03-01T12:25:39;5.10;99.90
23259;DHT22;11798;51.528;7.240;2023-03-01T12:28:22;5.10;99.90
23259;DHT22;11798;51.528;7.240;2023-03-01T12:31:16;5.10;99.90
23259;DHT22;11798;51.528;7.240;2023-03-01T12:50:02;5.30;99.90
23259;DHT22;11798;51.528;7.240;2023-03-01T12:52:41;5.40;99.90
23259;DHT22;11798;51.528;7.240;2023-03-01T13:00:37;5.30;99.90
23259;DHT22;11798;51.528;7.240;2023-03-01T13:08:56;5.30;99.90
23259;DHT22;11798;51.528;7.240;2023-03-01T13:11:26;5.40;99.90
23259;DHT22;11798;51.528;7.240;2023-03-01T13:13:51;5.50;99.90
23259;DHT22;11798;51.528;7.240;2023-03-01T13:16:40;5.40;99.90
23259;DHT22;11798;51.528;7.240;2023-03-01T13:19:10;5.50;99.90
23259;DHT22;11798;51.528;7.240;2023-03-01T13:21:37;5.40;99.90
23259;DHT22;11798;51.528;7.240;2023-03-01T13:24:03;5.50;99.90
23259;DHT22;11798;51.528;7.240;2023-03-01T13:26:29;5.50;99.90
23259;DHT22;11798;51.528;7.240;2023-03-01T13:28:56;5.50;99.90
23259;DHT22;11798;51.528;7.240;2023-03-01T13:34:02;5.60;99.90
23259;DHT22;11798;51.528;7.240;2023-03-01T13:39:02;5.60;99.90
23259;DHT22;11798;51.528;7.240;2023-03-01T13:46:38;5.80;99.90
23259;DHT22;11798;51.528;7.240;2023-03-01T13:49:05;5.80;99.90
23259;DHT22;11798;51.528;7.240;2023-03-01T13:51:36;5.80;99.90
23259;DHT22;11798;51.528;7.240;2023-03-01T13:54:02;5.80;99.90
23259;DHT22;11798;51.528;7.240;2023-03-01T13:56:35;5.80;99.90
23259;DHT22;11798;51.528;7.240;2023-03-01T13:59:06;5.90;99.90
23259;DHT22;11798;51.528;7.240;2023-03-01T14:01:37;5.90;99.90
23259;DHT22;11798;51.528;7.240;2023-03-01T14:04:18;5.90;99.90
23259;DHT22;11798;51.528;7.240;2023-03-01T14:06:45;5.80;99.90
23259;DHT22;11798;51.528;7.240;2023-03-01T14:11:48;5.90;99.90
23259;DHT22;11798;51.528;7.240;2023-03-01T14:19:47;5.80;99.90
23259;DHT22;11798;51.528;7.240;2023-03-01T14:22:22;5.70;99.90
23259;DHT22;11798;51.528;7.240;2023-03-01T14:24:51;5.80;99.90
23259;DHT22;11798;51.528;7.240;2023-03-01T14:27:18;5.80;99.90
23259;DHT22;11798;51.528;7.240;2023-03-01T14:29:54;5.90;99.90
23259;DHT22;11798;51.528;7.240;2023-03-01T14:32:29;5.90;99.90
23259;DHT22;11798;51.528;7.240;2023-03-01T14:34:58;5.90;99.90
23259;DHT22;11798;51.528;7.240;2023-03-01T14:37:26;5.80;99.90
23259;DHT22;11798;51.528;7.240;2023-03-01T14:39:52;5.90;99.90
23259;DHT22;11798;51.528;7.240;2023-03-01T14:42:20;5.90;99.90
23259;DHT22;11798;51.528;7.240;2023-03-01T14:44:49;5.80;99.90
23259;DHT22;11798;51.528;7.240;2023-03-01T14:47:32;5.90;99.90
23259;DHT22;11798;51.528;7.240;2023-03-01T14:52:38;5.90;99.90
23259;DHT22;11798;51.528;7.240;2023-03-01T14:55:13;5.80;99.90
23259;DHT22;11798;51.528;7.240;2023-03-01T14:57:44;5.90;99.90
23259;DHT22;11798;51.528;7.240;2023-03-01T15:00:22;5.90;99.90
23259;DHT22;11798;51.528;7.240;2023-03-01T15:02:50;5.90;99.90
23259;DHT22;11798;51.528;7.240;2023-03-01T15:05:24;5.90;99.90
23259;DHT22;11798;51.528;7.240;2023-03-01T15:07:51;5.90;99.90
23259;DHT22;11798;51.528;7.240;2023-03-01T15:10:21;6.00;99.90
23259;DHT22;11798;51.528;7.240;2023-03-01T15:12:48;6.00;99.90
23259;DHT22;11798;51.528;7.240;2023-03-01T15:15:36;5.90;99.90
23259;DHT22;11798;51.528;7.240;2023-03-01T15:18:12;6.00;99.90
23259;DHT22;11798;51.528;7.240;2023-03-01T15:20:39;6.00;99.90
23259;DHT22;11798;51.528;7.240;2023-03-01T15:23:05;6.10;99.90
23259;DHT22;11798;51.528;7.240;2023-03-01T15:25:32;6.10;99.90
23259;DHT22;11798;51.528;7.240;2023-03-01T15:28:00;6.20;99.90
23259;DHT22;11798;51.528;7.240;2023-03-01T15:30:30;6.30;99.90
23259;DHT22;11798;51.528;7.240;2023-03-01T15:33:34;6.20;99.90
23259;DHT22;11798;51.528;7.240;2023-03-01T15:36:03;6.20;99.90
23259;DHT22;11798;51.528;7.240;2023-03-01T15:38:35;6.40;99.90
23259;DHT22;11798;51.528;7.240;2023-03-01T15:41:21;6.40;99.90
23259;DHT22;11798;51.528;7.240;2023-03-01T15:43:47;6.50;99.90
23259;DHT22;11798;51.528;7.240;2023-03-01T15:48:56;6.70;99.90
23259;DHT22;11798;51.528;7.240;2023-03-01T15:51:35;7.00;99.90
23259;DHT22;11798;51.528;7.240;2023-03-01T15:54:07;7.20;99.90
23259;DHT22;11798;51.528;7.240;2023-03-01T15:56:37;7.30;99.90
23259;DHT22;11798;51.528;7.240;2023-03-01T15:59:04;7.20;99.90
23259;DHT22;11798;51.528;7.240;2023-03-01T16:01:32;7.50;99.90
23259;DHT22;11798;51.528;7.240;2023-03-01T16:03:59;7.80;99.90
23259;DHT22;11798;51.528;7.240;2023-03-01T16:06:25;7.80;99.90
23259;DHT22;11798;51.528;7.240;2023-03-01T16:08:51;7.60;99.90
23259;DHT22;11798;51.528;7.240;2023-03-01T16:11:18;7.50;99.90
23259;DHT22;11798;51.528;7.240;2023-03-01T16:13:45;7.70;99.90
23259;DHT22;11798;51.528;7.240;2023-03-01T16:16:12;7.60;99.90
23259;DHT22;11798;51.528;7.240;2023-03-01T16:18:41;7.40;99.90
23259;DHT22;11798;51.528;7.240;2023-03-01T16:21:08;7.30;99.90
23259;DHT22;11798;51.528;7.240;2023-03-01T16:23:36;7.10;99.90
23259;DHT22;11798;51.528;7.240;2023-03-01T16:26:02;6.80;99.90
23259;DHT22;11798;51.528;7.240;2023-03-01T16:28:27;6.60;99.90
23259;DHT22;11798;51.528;7.240;2023-03-01T16:30:53;6.40;99.90
23259;DHT22;11798;51.528;7.240;2023-03-01T16:33:18;6.20;99.90
23259;DHT22;11798;51.528;7.240;2023-03-01T16:35:44;6.10;99.90
23259;DHT22;11798;51.528;7.240;2023-03-01T16:38:10;5.90;99.90
23259;DHT22;11798;51.528;7.240;2023-03-01T16:40:36;5.90;99.90
23259;DHT22;11798;51.528;7.240;2023-03-01T16:43:02;5.90;99.90
23259;DHT22;11798;51.528;7.240;2023-03-01T16:45:33;5.80;99.90
23259;DHT22;11798;51.528;7.240;2023-03-01T16:48:01;5.80;99.90
23259;DHT22;11798;51.528;7.240;2023-03-01T16:50:26;5.70;99.90
23259;DHT22;11798;51.528;7.240;2023-03-01T16:52:52;5.60;99.90
23259;DHT22;11798;51.528;7.240;2023-03-01T16:55:18;5.50;99.90
23259;DHT22;11798;51.528;7.240;2023-03-01T16:57:43;5.40;99.90
23259;DHT22;11798;51.528;7.240;2023-03-01T17:00:10;5.30;99.90
23259;DHT22;11798;51.528;7.240;2023-03-01T17:02:38;5.30;99.90
23259;DHT22;11798;51.528;7.240;2023-03-01T17:05:04;5.20;99.90
23259;DHT22;11798;51.528;7.240;2023-03-01T17:07:31;5.20;99.90
23259;DHT22;11798;51.528;7.240;2023-03-01T17:09:59;5.10;99.90
23259;DHT22;11798;51.528;7.240;2023-03-01T17:12:25;5.00;99.90
23259;DHT22;11798;51.528;7.240;2023-03-01T17:14:50;5.00;99.90
23259;DHT22;11798;51.528;7.240;2023-03-01T17:17:16;4.90;99.90
23259;DHT22;11798;51.528;7.240;2023-03-01T17:19:42;4.90;99.90
23259;DHT22;11798;51.528;7.240;2023-03-01T17:22:10;4.80;99.90
23259;DHT22;11798;51.528;7.240;2023-03-01T17:24:40;4.80;99.90
23259;DHT22;11798;51.528;7.240;2023-03-01T17:27:06;4.80;99.90
23259;DHT22;11798;51.528;7.240;2023-03-01T17:29:32;4.70;99.90
23259;DHT22;11798;51.528;7.240;2023-03-01T17:31:58;4.70;99.90
23259;DHT22;11798;51.528;7.240;2023-03-01T17:34:24;4.70;99.90
23259;DHT22;11798;51.528;7.240;2023-03-01T17:36:50;4.60;99.90
23259;DHT22;11798;51.528;7.240;2023-03-01T17:39:18;4.50;99.90